Time;durP1;ratioP1;P1;durP2;ratioP2;P2;SDS_P1;SDS_P2;PMS_P1;PMS_P2;Temp;Humidity;BMP_temperature;BMP_pressure;BME280_temperature;BME280_humidity;BME280_pressure;Samples;Min_cycle;Max_cycle;Signal;HPM_P1;HPM_P2
2023/06/03 00:01:24;;;;;;;5.82;5.00;;;;;;;17.57;81.71;98427.00;5094762;28;20027;-45
2023/06/03 00:03:50;;;;;;;11.70;5.43;;;;;;;17.53;82.80;98425.91;5094558;28;20511;-45
2023/06/03 00:06:16;;;;;;;5.90;4.45;;;;;;;17.56;82.88;98418.22;5112821;28;20501;-45
2023/06/03 00:08:45;;;;;;;12.00;4.90;;;;;;;17.62;83.52;98416.41;5112757;28;20110;-45
2023/06/03 00:11:11;;;;;;;6.53;5.05;;;;;;;17.74;82.87;98414.38;5112688;28;20016;-45
2023/06/03 00:13:38;;;;;;;14.68;5.65;;;;;;;17.81;82.65;98416.84;5112950;28;20370;-45
2023/06/03 00:16:04;;;;;;;12.10;5.90;;;;;;;17.86;82.08;98430.16;5112560;28;20388;-45
2023/06/03 00:18:30;;;;;;;19.40;6.30;;;;;;;17.88;82.15;98422.75;5111346;28;20032;-45
2023/06/03 00:20:56;;;;;;;16.30;6.18;;;;;;;17.89;80.89;98421.72;5112552;28;20047;-45
2023/06/03 00:23:22;;;;;;;11.77;5.32;;;;;;;17.88;81.40;98420.09;5112591;28;20043;-45
2023/06/03 00:25:48;;;;;;;15.63;9.00;;;;;;;17.87;81.21;98420.38;5112572;28;20024;-45
2023/06/03 00:28:15;;;;;;;31.02;28.10;;;;;;;17.96;81.29;98424.16;5094169;28;20104;-45
2023/06/03 00:30:41;;;;;;;17.40;9.52;;;;;;;18.08;81.57;98422.09;5112700;28;20400;-45
2023/06/03 00:33:06;;;;;;;23.27;8.90;;;;;;;18.10;80.17;98424.50;5112484;28;20102;-45
2023/06/03 00:35:33;;;;;;;16.35;6.80;;;;;;;17.96;79.71;98422.28;5093764;28;20138;-45
2023/06/03 00:37:59;;;;;;;11.88;5.57;;;;;;;18.06;81.55;98426.88;5094083;28;20024;-45
2023/06/03 00:40:25;;;;;;;14.02;6.30;;;;;;;18.19;80.59;98425.63;5112275;28;20035;-45
2023/06/03 00:42:51;;;;;;;14.57;6.70;;;;;;;18.02;77.99;98420.47;5112317;28;20385;-45
2023/06/03 00:45:17;;;;;;;12.30;7.15;;;;;;;17.65;78.78;98418.56;5077192;28;20027;-45
2023/06/03 00:47:43;;;;;;;11.90;5.68;;;;;;;17.40;79.69;98429.75;5110980;28;20031;-45
2023/06/03 00:50:11;;;;;;;8.40;5.80;;;;;;;17.21;80.46;98420.56;5093891;28;20553;-45
2023/06/03 00:52:39;;;;;;;12.15;6.47;;;;;;;17.07;81.56;98418.28;5110891;28;20058;-45
2023/06/03 00:55:05;;;;;;;15.98;6.05;;;;;;;17.09;nan;98423.34;5110752;28;20382;-45
2023/06/03 00:57:31;;;;;;;8.25;5.68;;;;;;;17.09;81.95;98421.50;5112166;28;20031;-45
2023/06/03 00:59:57;;;;;;;10.77;6.72;;;;;;;17.02;82.13;98412.91;5112120;28;20031;-45
2023/06/03 01:02:23;;;;;;;49.47;45.30;;;;;;;17.12;83.20;98412.22;5112074;28;20504;-45
2023/06/03 01:04:51;;;;;;;180.15;165.77;;;;;;;17.45;82.68;98418.41;5112306;28;20504;-45
2023/06/03 01:07:41;;;;;;;63.13;58.00;;;;;;;17.47;81.39;98408.34;5093767;28;20034;-45
2023/06/03 01:10:28;;;;;;;44.55;40.05;;;;;;;17.41;81.23;98406.69;5113998;28;20076;-45
2023/06/03 01:13:07;;;;;;;15.90;13.98;;;;;;;17.28;80.17;98416.63;5116237;28;20031;-45
2023/06/03 01:15:35;;;;;;;25.73;13.02;;;;;;;17.11;80.99;98410.66;5097905;28;20028;-45
2023/06/03 01:18:04;;;;;;;11.10;5.78;;;;;;;17.12;82.02;98415.72;5116170;28;20020;-45
2023/06/03 01:20:32;;;;;;;8.55;5.32;;;;;;;17.23;81.93;98408.66;5115958;28;20216;-45
2023/06/03 01:23:23;;;;;;;19.15;9.40;;;;;;;17.24;81.79;98417.38;5116053;28;20114;-45
2023/06/03 01:25:58;;;;;;;14.82;7.18;;;;;;;17.28;81.77;98413.97;5115987;28;20481;-45
2023/06/03 01:28:25;;;;;;;8.27;6.15;;;;;;;17.36;81.77;98410.91;5115965;28;20551;-45
2023/06/03 01:30:52;;;;;;;11.55;5.80;;;;;;;17.32;81.22;98409.78;5116069;28;20019;-45
2023/06/03 01:33:20;;;;;;;6.10;4.88;;;;;;;17.34;80.92;98404.22;5116071;28;20031;-45
2023/06/03 01:35:48;;;;;;;17.55;6.93;;;;;;;17.27;81.09;98407.09;5110695;28;20044;-45
2023/06/03 01:38:14;;;;;;;10.27;6.20;;;;;;;17.36;80.87;98410.91;5095315;28;20020;-45
2023/06/03 01:40:40;;;;;;;17.58;6.40;;;;;;;17.26;80.64;98410.78;5095508;28;20447;-45
2023/06/03 01:43:06;;;;;;;20.60;6.80;;;;;;;17.16;80.03;98410.69;5095222;28;20550;-45
2023/06/03 01:45:32;;;;;;;17.67;7.43;;;;;;;17.00;80.14;98416.88;5086625;28;20066;-45
2023/06/03 01:47:59;;;;;;;9.20;5.53;;;;;;;16.94;81.18;98413.38;5110813;28;20085;-45
2023/06/03 01:50:25;;;;;;;13.90;6.10;;;;;;;16.95;81.46;98409.69;5095133;28;20024;-45
2023/06/03 01:52:51;;;;;;;12.85;5.90;;;;;;;16.83;80.97;98406.38;5094975;28;20020;-45
2023/06/03 01:55:17;;;;;;;23.52;5.90;;;;;;;16.83;81.84;98411.66;5095128;28;20403;-45
2023/06/03 01:57:43;;;;;;;14.07;5.68;;;;;;;16.96;81.74;98408.63;5094920;28;20084;-45
2023/06/03 02:00:10;;;;;;;13.23;6.57;;;;;;;16.96;81.13;98398.84;5091590;28;20440;-45
2023/06/03 02:02:36;;;;;;;16.63;7.07;;;;;;;17.03;81.53;98392.53;5094784;28;20025;-45
2023/06/03 02:05:03;;;;;;;21.25;8.18;;;;;;;17.18;81.59;98400.63;5094805;28;20083;-45
2023/06/03 02:07:31;;;;;;;18.75;6.75;;;;;;;17.42;81.08;98393.16;5094693;28;20028;-45
2023/06/03 02:09:58;;;;;;;11.02;5.65;;;;;;;17.54;80.40;98401.75;5094695;28;20026;-45
2023/06/03 02:12:23;;;;;;;18.30;5.35;;;;;;;17.65;78.61;98404.50;5086312;28;20103;-45
2023/06/03 02:14:53;;;;;;;13.50;5.70;;;;;;;17.37;78.17;98396.56;5088504;28;20110;-45
2023/06/03 02:17:24;;;;;;;16.35;6.97;;;;;;;17.08;78.77;98400.53;5094609;28;20020;-45
2023/06/03 02:19:50;;;;;;;13.65;6.20;;;;;;;16.88;79.39;98409.88;5094475;28;20093;-45
2023/06/03 02:22:20;;;;;;;11.18;5.28;;;;;;;16.76;79.94;98404.66;5107992;28;20020;-45
2023/06/03 02:24:46;;;;;;;24.85;11.75;;;;;;;16.65;79.63;98404.78;5087827;28;20024;-45
2023/06/03 02:27:14;;;;;;;22.77;7.93;;;;;;;16.50;80.88;98411.50;5094706;28;20046;-45
2023/06/03 02:29:45;;;;;;;21.95;8.65;;;;;;;16.41;80.74;98406.88;5094542;28;20047;-45
2023/06/03 02:32:10;;;;;;;16.98;6.47;;;;;;;16.36;81.82;98404.97;5091385;28;20016;-45
2023/06/03 02:34:36;;;;;;;24.75;7.20;;;;;;;16.40;81.96;98406.09;5093366;28;20098;-45
2023/06/03 02:37:02;;;;;;;20.17;6.47;;;;;;;16.47;81.68;98405.91;5073124;28;20020;-45
2023/06/03 02:39:27;;;;;;;9.25;4.88;;;;;;;16.62;82.04;98400.78;5072610;28;20020;-45
2023/06/03 02:41:53;;;;;;;20.35;6.13;;;;;;;16.71;81.56;98403.81;5072553;28;20375;-45
2023/06/03 02:44:19;;;;;;;27.58;12.25;;;;;;;16.74;81.88;98406.78;5093505;28;20438;-45
2023/06/03 02:46:45;;;;;;;23.83;12.75;;;;;;;16.82;81.69;98402.91;5093984;28;20043;-45
2023/06/03 02:49:12;;;;;;;8.57;5.60;;;;;;;16.87;80.53;98397.66;5074116;28;20416;-45
2023/06/03 02:51:40;;;;;;;8.43;5.22;;;;;;;16.85;79.62;98410.34;5093888;28;20024;-45
2023/06/03 02:54:06;;;;;;;20.77;5.88;;;;;;;16.73;79.82;98415.75;5094127;28;20032;-45
2023/06/03 02:56:32;;;;;;;13.20;5.47;;;;;;;16.76;80.59;98412.63;5093731;28;20028;-45
2023/06/03 02:58:57;;;;;;;9.13;4.70;;;;;;;16.83;80.26;98415.09;5093775;28;20375;-45
2023/06/03 03:01:23;;;;;;;8.02;5.28;;;;;;;16.82;79.02;98412.69;5093628;28;20028;-45
2023/06/03 03:03:49;;;;;;;11.80;5.30;;;;;;;16.67;79.38;98422.03;5093728;28;20094;-45
2023/06/03 03:06:15;;;;;;;13.75;5.18;;;;;;;16.66;79.90;98417.81;5074420;28;20086;-45
2023/06/03 03:08:45;;;;;;;13.38;6.00;;;;;;;16.66;79.48;98415.16;5072032;28;20025;-45
2023/06/03 03:11:11;;;;;;;7.90;4.75;;;;;;;16.66;79.67;98417.81;5091628;28;20028;-45
2023/06/03 03:13:36;;;;;;;15.70;6.13;;;;;;;16.69;78.51;98416.50;5093475;28;20030;-45
2023/06/03 03:16:02;;;;;;;7.55;4.18;;;;;;;16.67;78.11;98414.09;5072306;28;20033;-45
2023/06/03 03:18:28;;;;;;;14.40;6.63;;;;;;;16.67;79.14;98418.59;5093449;28;20458;-45
2023/06/03 03:20:54;;;;;;;16.00;8.05;;;;;;;16.80;79.07;98425.38;5071875;28;20059;-45
2023/06/03 03:23:20;;;;;;;19.30;16.73;;;;;;;16.87;77.75;98418.88;5092749;28;20030;-45
2023/06/03 03:25:46;;;;;;;26.98;22.23;;;;;;;16.81;76.85;98416.38;5093124;28;20085;-45
2023/06/03 03:28:11;;;;;;;20.35;16.02;;;;;;;16.68;77.59;98417.53;5093141;28;20020;-45
2023/06/03 03:30:37;;;;;;;18.60;10.65;;;;;;;16.69;77.89;98416.50;5093097;28;20031;-45
2023/06/03 03:33:07;;;;;;;31.48;28.27;;;;;;;16.76;78.62;98412.63;5092835;28;20020;-45
2023/06/03 03:35:39;;;;;;;15.95;10.52;;;;;;;16.81;77.84;98413.72;5105940;28;20109;-45
2023/06/03 03:38:07;;;;;;;10.13;5.90;;;;;;;16.80;77.93;98415.56;5113388;28;20047;-45
2023/06/03 03:40:37;;;;;;;13.40;11.38;;;;;;;16.85;78.40;98420.16;5113384;28;20028;-45
2023/06/03 03:43:03;;;;;;;14.85;13.45;;;;;;;16.81;77.45;98416.38;5113340;28;20034;-45
2023/06/03 03:45:33;;;;;;;91.38;82.95;;;;;;;16.61;77.57;98425.69;5094873;28;20034;-45
2023/06/03 03:48:12;;;;;;;28.75;21.60;;;;;;;16.62;78.53;98421.16;5113251;28;20019;-45
2023/06/03 03:50:40;;;;;;;34.15;30.60;;;;;;;16.69;77.98;98427.09;5113406;28;20392;-45
2023/06/03 03:53:08;;;;;;;97.07;88.30;;;;;;;16.74;77.45;98432.44;5113112;28;20106;-45
2023/06/03 03:55:39;;;;;;;99.30;91.15;;;;;;;16.69;76.97;98435.84;5113177;28;20420;-45
2023/06/03 03:58:20;;;;;;;122.47;112.32;;;;;;;16.67;76.84;98432.63;5113042;28;20028;-45
2023/06/03 04:00:47;;;;;;;46.40;42.35;;;;;;;16.59;76.89;98443.66;5112947;28;20023;-45
2023/06/03 04:03:14;;;;;;;121.80;111.45;;;;;;;16.69;76.75;98441.16;5112814;28;20027;-45
2023/06/03 04:05:40;;;;;;;108.45;100.47;;;;;;;16.62;76.63;98437.88;5112758;28;20064;-45
2023/06/03 04:08:06;;;;;;;26.92;20.67;;;;;;;16.54;76.81;98441.75;5113117;28;20397;-45
2023/06/03 04:10:33;;;;;;;35.47;31.50;;;;;;;16.55;77.02;98438.06;5112984;28;20024;-45
2023/06/03 04:12:58;;;;;;;29.33;26.33;;;;;;;16.62;76.80;98447.66;5094432;28;20035;-45
2023/06/03 04:15:32;;;;;;;73.00;65.75;;;;;;;16.58;76.37;98442.88;5112659;28;20091;-45
2023/06/03 04:17:58;;;;;;;28.85;26.02;;;;;;;16.73;77.09;98444.91;5112741;28;20028;-45
2023/06/03 04:20:39;;;;;;;12.40;11.13;;;;;;;17.07;76.17;98444.00;5112616;28;20439;-45
2023/06/03 04:23:07;;;;;;;37.10;20.23;;;;;;;17.45;74.44;98453.69;5112559;28;20027;-45
2023/06/03 04:25:33;;;;;;;44.13;40.45;;;;;;;17.65;72.93;98442.47;5112484;28;20080;-45
2023/06/03 04:27:59;;;;;;;27.52;24.30;;;;;;;18.10;71.44;98456.38;5112463;28;20019;-45
2023/06/03 04:30:24;;;;;;;12.45;8.55;;;;;;;18.65;68.97;98455.13;5112478;28;20038;-45
2023/06/03 04:32:50;;;;;;;17.02;13.25;;;;;;;18.91;67.28;98453.41;5112470;28;20030;-45
2023/06/03 04:35:16;;;;;;;33.17;30.35;;;;;;;19.11;66.07;98460.63;5112091;28;20040;-45
2023/06/03 04:37:41;;;;;;;31.45;28.38;;;;;;;19.07;65.90;98461.41;5094034;28;20409;-45
2023/06/03 04:40:10;;;;;;;32.15;23.25;;;;;;;18.99;65.70;98467.25;5112570;28;20382;-45
2023/06/03 04:42:36;;;;;;;43.20;29.75;;;;;;;19.11;66.95;98463.28;5112229;28;20412;-45
2023/06/03 04:45:01;;;;;;;47.53;40.10;;;;;;;19.43;67.12;98462.31;5093383;28;20012;-45
2023/06/03 04:47:28;;;;;;;26.55;23.08;;;;;;;19.93;66.81;98465.31;5112281;28;20473;-45
2023/06/03 04:49:58;;;;;;;67.30;62.28;;;;;;;20.65;63.97;98468.69;5112225;28;20031;-45
2023/06/03 04:52:23;;;;;;;23.80;21.48;;;;;;;21.00;61.30;98466.97;5112206;28;20047;-45
2023/06/03 04:54:49;;;;;;;41.40;37.22;;;;;;;21.13;58.92;98463.69;5112021;28;20142;-45
2023/06/03 04:57:15;;;;;;;25.02;22.35;;;;;;;20.85;58.81;98467.03;5112156;28;20055;-45
2023/06/03 04:59:43;;;;;;;55.25;50.40;;;;;;;20.32;61.00;98467.41;5093810;28;20378;-45
2023/06/03 05:02:10;;;;;;;13.73;7.22;;;;;;;20.93;61.89;98464.59;5112130;28;20049;-45
2023/06/03 05:04:37;;;;;;;12.60;6.55;;;;;;;22.18;58.83;98462.72;5112075;28;20042;-45
2023/06/03 05:07:03;;;;;;;16.58;9.23;;;;;;;23.08;54.92;98456.69;5111979;28;20028;-45
2023/06/03 05:09:28;;;;;;;17.52;9.85;;;;;;;23.89;52.90;98461.16;5112083;28;20023;-45
2023/06/03 05:11:56;;;;;;;11.35;5.00;;;;;;;24.64;51.12;98457.41;5112013;28;20023;-46
2023/06/03 05:14:22;;;;;;;14.93;5.53;;;;;;;24.56;49.25;98468.03;5111916;28;20027;-46
2023/06/03 05:16:48;;;;;;;45.75;21.05;;;;;;;23.52;50.13;98468.91;5111798;28;20024;-45
2023/06/03 05:19:13;;;;;;;20.77;18.75;;;;;;;22.18;52.78;98478.75;5111981;28;20393;-45
2023/06/03 05:21:39;;;;;;;15.65;11.25;;;;;;;21.22;56.45;98474.59;5093566;28;20114;-46
2023/06/03 05:24:05;;;;;;;25.45;19.70;;;;;;;21.55;56.42;98469.63;5112170;28;20027;-46
2023/06/03 05:26:31;;;;;;;9.38;4.65;;;;;;;21.55;55.86;98472.31;5111868;28;20024;-45
2023/06/03 05:28:56;;;;;;;5.35;3.80;;;;;;;21.17;56.63;98479.97;5093743;28;20493;-46
2023/06/03 05:31:22;;;;;;;16.50;11.15;;;;;;;21.03;58.08;98484.31;5110517;28;20026;-46
2023/06/03 05:33:48;;;;;;;9.48;3.97;;;;;;;21.06;57.40;98483.75;5111838;28;20391;-45
2023/06/03 05:36:13;;;;;;;7.30;4.10;;;;;;;20.98;57.38;98485.09;5111497;28;20516;-46
2023/06/03 05:38:39;;;;;;;8.52;3.47;;;;;;;21.02;57.82;98486.16;5111777;28;20040;-45
2023/06/03 05:41:06;;;;;;;10.05;5.20;;;;;;;21.24;57.91;98493.78;5110420;28;20446;-45
2023/06/03 05:43:32;;;;;;;5.57;3.53;;;;;;;21.79;56.35;98485.72;5093794;28;20020;-45
2023/06/03 05:45:58;;;;;;;11.57;4.10;;;;;;;22.17;55.02;98482.50;5111664;28;20033;-45
2023/06/03 05:48:24;;;;;;;13.07;10.60;;;;;;;22.48;54.56;98483.03;5111647;28;20100;-46
2023/06/03 05:50:51;;;;;;;5.25;3.50;;;;;;;22.55;54.26;98486.16;5111577;28;20482;-46
2023/06/03 05:53:20;;;;;;;5.35;3.47;;;;;;;22.82;53.60;98496.31;5111695;28;20024;-46
2023/06/03 05:55:46;;;;;;;11.20;3.75;;;;;;;23.54;51.95;98490.03;5112747;28;20020;-46
2023/06/03 05:58:12;;;;;;;7.75;3.75;;;;;;;23.56;51.11;98489.75;5097037;28;20110;-46
2023/06/03 06:00:38;;;;;;;9.68;4.80;;;;;;;23.24;51.74;98491.25;5096970;28;20115;-46
2023/06/03 06:03:03;;;;;;;9.23;3.42;;;;;;;22.89;52.62;98488.72;5115386;28;20107;-46
2023/06/03 06:05:29;;;;;;;7.38;3.67;;;;;;;22.64;53.50;98481.78;5115268;28;20020;-46
2023/06/03 06:07:56;;;;;;;8.65;3.65;;;;;;;22.44;54.56;98493.50;5115256;28;20023;-46
2023/06/03 06:10:21;;;;;;;15.38;7.93;;;;;;;22.60;55.11;98493.34;5115126;28;20015;-45
2023/06/03 06:12:47;;;;;;;9.57;3.35;;;;;;;22.74;54.79;98499.63;5096974;28;20409;-46
2023/06/03 06:15:13;;;;;;;29.13;15.93;;;;;;;22.68;53.86;98495.41;5114983;28;20028;-46
2023/06/03 06:17:38;;;;;;;10.75;6.57;;;;;;;22.42;54.59;98502.91;5114952;28;20031;-46
2023/06/03 06:20:06;;;;;;;6.80;3.80;;;;;;;22.59;55.45;98494.41;5115019;28;20043;-46
2023/06/03 06:22:32;;;;;;;14.32;8.18;;;;;;;22.94;54.58;98495.91;5114918;28;20138;-46
2023/06/03 06:24:58;;;;;;;16.85;14.63;;;;;;;23.25;53.71;98500.91;5114811;28;20023;-45
2023/06/03 06:27:24;;;;;;;14.13;9.30;;;;;;;23.49;53.12;98511.56;5096496;28;20031;-45
2023/06/03 06:29:51;;;;;;;23.35;16.67;;;;;;;23.83;52.17;98499.84;5113472;28;20050;-46
2023/06/03 06:32:25;;;;;;;18.98;11.52;;;;;;;23.78;51.61;98500.69;5114915;28;20427;-46
2023/06/03 06:34:52;;;;;;;12.80;5.10;;;;;;;23.98;51.73;98498.78;5114313;28;20054;-45
2023/06/03 06:37:21;;;;;;;15.02;6.00;;;;;;;24.35;51.06;98495.22;5114627;28;20027;-46
2023/06/03 06:39:51;;;;;;;13.80;5.10;;;;;;;24.85;50.20;98495.38;5114487;28;20022;-46
2023/06/03 06:42:20;;;;;;;17.67;4.20;;;;;;;25.35;48.59;98497.31;5114544;28;20056;-45
2023/06/03 06:44:48;;;;;;;12.60;6.68;;;;;;;25.57;46.65;98493.88;5114782;28;20038;-46
2023/06/03 06:47:27;;;;;;;22.70;20.35;;;;;;;25.17;46.51;98499.00;5113089;28;20027;-46
2023/06/03 06:49:57;;;;;;;11.75;7.18;;;;;;;24.56;48.11;98502.94;5114391;28;20030;-46
2023/06/03 06:52:24;;;;;;;17.35;6.30;;;;;;;24.20;49.28;98517.72;5095960;28;20022;-46
2023/06/03 06:54:52;;;;;;;14.60;4.45;;;;;;;24.27;50.09;98518.16;5114187;28;20434;-46
2023/06/03 06:57:23;;;;;;;11.48;4.30;;;;;;;24.48;48.31;98515.88;5096643;28;20024;-45
2023/06/03 06:59:53;;;;;;;7.50;3.90;;;;;;;23.92;48.98;98522.19;5112959;28;20485;-45
2023/06/03 07:02:22;;;;;;;11.68;4.85;;;;;;;23.43;50.84;98524.22;5114312;28;20020;-46
2023/06/03 07:04:51;;;;;;;13.88;5.10;;;;;;;23.46;51.04;98529.00;5112801;28;20031;-46
2023/06/03 07:07:17;;;;;;;5.80;3.38;;;;;;;23.52;50.84;98529.72;5113495;28;20102;-46
2023/06/03 07:09:43;;;;;;;5.03;3.80;;;;;;;23.51;50.54;98528.13;5113930;28;20038;-45
2023/06/03 07:12:09;;;;;;;7.07;3.60;;;;;;;23.49;50.86;98517.72;5112662;28;20019;-46
2023/06/03 07:14:35;;;;;;;10.07;4.75;;;;;;;23.24;51.66;98521.53;5112586;28;20035;-46
2023/06/03 07:17:01;;;;;;;14.60;5.60;;;;;;;23.22;51.89;98526.38;5113806;28;20019;-46
2023/06/03 07:19:35;;;;;;;14.15;5.40;;;;;;;23.46;51.97;98525.50;5078617;28;20485;-46
2023/06/03 07:22:01;;;;;;;7.18;4.25;;;;;;;23.73;51.59;98522.19;5114025;28;20064;-46
2023/06/03 07:24:27;;;;;;;5.95;4.20;;;;;;;24.25;50.67;98528.38;5113626;28;20031;-46
2023/06/03 07:26:53;;;;;;;9.77;4.20;;;;;;;24.65;49.37;98525.28;5113906;28;20024;-46
2023/06/03 07:29:19;;;;;;;16.75;5.20;;;;;;;25.02;48.52;98527.00;5095410;28;20142;-46
2023/06/03 07:31:46;;;;;;;11.85;3.67;;;;;;;25.41;47.14;98524.88;5113565;28;20489;-46
2023/06/03 07:34:20;;;;;;;8.10;3.28;;;;;;;25.79;46.64;98524.56;5095307;28;20544;-46
2023/06/03 07:36:50;;;;;;;13.30;3.73;;;;;;;26.35;46.05;98528.59;5113327;28;20119;-46
2023/06/03 07:39:20;;;;;;;8.63;3.58;;;;;;;27.11;44.29;98525.00;5113340;28;20035;-46
2023/06/03 07:41:52;;;;;;;10.82;3.85;;;;;;;27.49;42.20;98525.22;5113393;28;20031;-46
2023/06/03 07:44:50;;;;;;;17.02;4.18;;;;;;;27.65;42.50;98533.66;5095701;28;20035;-46
2023/06/03 07:47:17;;;;;;;12.70;4.28;;;;;;;27.80;41.76;98532.38;5091929;28;20075;-46
2023/06/03 07:49:47;;;;;;;10.25;4.57;;;;;;;28.85;40.29;98529.47;5113408;28;20035;-46
2023/06/03 07:52:20;;;;;;;37.95;28.90;;;;;;;30.20;37.73;98522.16;5094783;28;20519;-46
2023/06/03 07:54:46;;;;;;;12.65;6.43;;;;;;;31.14;35.74;98520.56;5094891;28;20106;-46
2023/06/03 07:57:15;;;;;;;12.02;4.65;;;;;;;31.11;34.78;98523.16;5113135;28;20035;-46
2023/06/03 07:59:54;;;;;;;12.00;7.03;;;;;;;30.91;35.11;98522.97;5112934;28;20032;-46
2023/06/03 08:02:20;;;;;;;9.85;6.28;;;;;;;30.65;34.25;98523.28;5112799;28;20068;-46
2023/06/03 08:04:46;;;;;;;5.80;3.65;;;;;;;30.78;34.25;98524.84;5094924;28;20028;-46
2023/06/03 08:07:13;;;;;;;5.68;3.13;;;;;;;31.17;33.55;98519.09;5095051;28;20038;-46
2023/06/03 08:09:40;;;;;;;10.88;3.97;;;;;;;30.96;33.79;98519.22;5111521;28;20024;-46
2023/06/03 08:12:07;;;;;;;8.65;3.65;;;;;;;30.96;34.01;98511.88;5094751;28;20054;-46
2023/06/03 08:14:35;;;;;;;5.03;3.28;;;;;;;31.53;33.02;98512.84;5112754;28;20031;-46
2023/06/03 08:17:37;;;;;;;17.63;5.45;;;;;;;33.06;31.44;98519.84;5112712;28;20015;-46
2023/06/03 08:20:08;;;;;;;7.95;3.20;;;;;;;34.46;29.73;98519.16;5110557;28;20032;-46
2023/06/03 08:22:43;;;;;;;6.88;3.28;;;;;;;34.83;29.09;98513.94;5112575;28;20030;-46
2023/06/03 08:25:10;;;;;;;5.20;3.20;;;;;;;34.73;29.02;98518.09;5112682;28;20088;-46
2023/06/03 08:27:37;;;;;;;6.63;2.75;;;;;;;35.33;28.15;98516.59;5111274;28;20020;-44
2023/06/03 08:30:07;;;;;;;12.15;5.30;;;;;;;37.01;26.25;98517.50;5112463;28;20477;-44
2023/06/03 08:32:34;;;;;;;6.97;3.58;;;;;;;38.41;23.95;98509.78;5094469;28;20020;-47
2023/06/03 08:34:59;;;;;;;8.00;4.00;;;;;;;39.21;22.93;98505.03;5112089;28;20529;-48
2023/06/03 08:37:26;;;;;;;10.98;3.40;;;;;;;39.39;21.85;98503.00;5112549;28;20084;-50
2023/06/03 08:39:52;;;;;;;8.73;3.90;;;;;;;39.00;22.26;98505.88;5094110;28;20070;-49
2023/06/03 08:42:23;;;;;;;5.30;3.40;;;;;;;38.78;22.64;98502.34;5094212;28;20027;-50
2023/06/03 08:45:08;;;;;;;11.30;4.72;;;;;;;39.35;22.24;98496.75;5112294;28;20374;-47
2023/06/03 08:48:20;;;;;;;7.47;3.88;;;;;;;39.60;21.48;98506.84;5094008;28;20039;-47
2023/06/03 08:50:49;;;;;;;10.43;4.63;;;;;;;39.32;20.60;98497.53;5112253;28;20500;-47
2023/06/03 08:53:15;;;;;;;11.88;4.43;;;;;;;38.92;21.02;98510.59;5112163;28;20115;-47
2023/06/03 08:55:41;;;;;;;9.68;3.30;;;;;;;38.56;21.72;98503.16;5112131;28;20445;-47
2023/06/03 08:58:26;;;;;;;5.32;2.97;;;;;;;39.15;21.21;98505.44;5112222;28;20020;-47
2023/06/03 09:00:59;;;;;;;7.22;3.63;;;;;;;38.86;21.39;98501.97;5112051;28;20031;-47
2023/06/03 09:03:25;;;;;;;8.25;3.35;;;;;;;39.18;21.28;98495.63;5112169;28;20032;-47
2023/06/03 09:05:53;;;;;;;7.50;2.80;;;;;;;39.60;21.16;98490.38;5110738;28;20517;-47
2023/06/03 09:08:19;;;;;;;11.40;4.20;;;;;;;40.43;19.88;98498.88;5112045;28;20028;-49
2023/06/03 09:10:46;;;;;;;9.88;3.88;;;;;;;39.23;20.74;98488.94;5094067;28;20501;-50
2023/06/03 09:13:13;;;;;;;8.48;3.42;;;;;;;37.56;21.74;98505.69;5093865;28;20073;-49
2023/06/03 09:15:41;;;;;;;6.95;3.72;;;;;;;35.77;23.87;98507.81;5111949;28;20023;-49
2023/06/03 09:18:07;;;;;;;4.30;2.67;;;;;;;34.48;26.48;98497.78;5093666;28;20055;-47
2023/06/03 09:20:35;;;;;;;13.75;3.90;;;;;;;33.82;26.73;98503.22;5111938;28;20445;-45
2023/06/03 09:23:01;;;;;;;19.17;5.00;;;;;;;33.82;26.70;98498.53;5112016;28;20102;-45
2023/06/03 09:25:27;;;;;;;4.85;2.65;;;;;;;34.88;25.60;98485.56;5111923;28;20024;-45
2023/06/03 09:27:53;;;;;;;7.07;3.25;;;;;;;36.56;24.30;98492.16;5112148;28;20027;-47
2023/06/03 09:30:19;;;;;;;6.47;2.97;;;;;;;37.64;22.66;98488.13;5112435;28;20023;-48
2023/06/03 09:32:45;;;;;;;5.95;2.50;;;;;;;38.34;21.41;98496.88;5115774;28;20024;-47
2023/06/03 09:35:11;;;;;;;11.80;6.32;;;;;;;38.30;21.45;98489.84;5115531;28;20051;-47
2023/06/03 09:37:37;;;;;;;4.07;2.22;;;;;;;38.11;21.52;98490.97;5114434;28;20030;-48
2023/06/03 09:40:05;;;;;;;6.85;2.60;;;;;;;37.92;21.98;98490.16;5115792;28;20024;-47
2023/06/03 09:42:44;;;;;;;4.18;2.60;;;;;;;37.95;22.16;98489.38;5115677;28;20027;-47
2023/06/03 09:45:29;;;;;;;7.68;2.97;;;;;;;37.89;22.87;98479.97;5115536;28;20032;-47
2023/06/03 09:47:56;;;;;;;5.70;2.92;;;;;;;38.44;21.95;98483.56;5115576;28;20023;-48
2023/06/03 09:50:23;;;;;;;19.05;4.57;;;;;;;38.71;21.70;98484.72;5097230;28;20044;-47
2023/06/03 09:52:50;;;;;;;11.30;5.38;;;;;;;38.87;21.50;98478.81;5115552;28;20556;-47
2023/06/03 09:55:17;;;;;;;5.70;2.95;;;;;;;39.07;20.65;98472.91;5115288;28;20030;-47
2023/06/03 09:58:02;;;;;;;7.43;3.28;;;;;;;38.92;21.45;98464.72;5115627;28;20016;-47
2023/06/03 10:00:28;;;;;;;6.75;3.45;;;;;;;38.74;21.76;98472.97;5097111;28;20035;-47
2023/06/03 10:03:06;;;;;;;11.55;2.92;;;;;;;38.84;21.95;98468.66;5097009;28;20556;-47
2023/06/03 10:05:33;;;;;;;16.40;7.50;;;;;;;39.26;21.02;98474.41;5115306;28;20032;-47
2023/06/03 10:08:01;;;;;;;9.57;4.03;;;;;;;38.98;21.11;98473.34;5115252;28;20024;-48
2023/06/03 10:10:26;;;;;;;8.52;2.97;;;;;;;38.58;21.64;98469.06;5115166;28;20047;-47
2023/06/03 10:12:52;;;;;;;8.52;3.33;;;;;;;38.21;22.15;98464.75;5113802;28;20548;-47
2023/06/03 10:15:52;;;;;;;7.70;3.10;;;;;;;38.17;22.11;98467.50;5113611;28;20505;-48
2023/06/03 10:18:33;;;;;;;8.20;3.13;;;;;;;37.96;22.12;98460.78;5063536;28;20452;-47
2023/06/03 10:21:05;;;;;;;11.95;3.58;;;;;;;37.31;22.98;98468.03;5114970;28;20441;-48
2023/06/03 10:23:31;;;;;;;7.88;3.20;;;;;;;37.43;22.98;98471.59;5113682;28;20024;-47
2023/06/03 10:25:58;;;;;;;4.00;2.67;;;;;;;37.36;23.24;98467.66;5096526;28;20034;-47
2023/06/03 10:28:25;;;;;;;9.70;3.20;;;;;;;37.71;23.12;98457.22;5114828;28;20043;-47
2023/06/03 10:30:52;;;;;;;6.65;3.47;;;;;;;37.95;22.10;98455.69;5115000;28;20027;-47
2023/06/03 10:33:19;;;;;;;10.18;3.03;;;;;;;38.24;22.45;98459.28;5096375;28;20459;-47
2023/06/03 10:35:47;;;;;;;3.80;3.28;;;;;;;38.52;22.03;98457.72;5114123;28;20046;-47
2023/06/03 10:38:14;;;;;;;5.60;3.22;;;;;;;38.18;22.10;98460.84;5096333;28;20175;-47
2023/06/03 10:40:43;;;;;;;6.45;3.13;;;;;;;38.43;21.90;98455.34;5096219;28;20024;-47
2023/06/03 10:43:10;;;;;;;11.77;3.90;;;;;;;38.37;22.23;98451.44;5095285;28;20061;-47
2023/06/03 10:45:36;;;;;;;14.88;5.97;;;;;;;38.30;22.17;98446.75;5113194;28;20039;-47
2023/06/03 10:48:09;;;;;;;12.10;3.80;;;;;;;39.05;21.75;98445.88;5114433;28;20470;-50
2023/06/03 10:50:47;;;;;;;12.52;5.38;;;;;;;40.11;20.84;98442.97;5096168;28;20566;-50
2023/06/03 10:53:37;;;;;;;9.93;4.43;;;;;;;40.75;20.11;98434.56;5114439;28;20050;-50
2023/06/03 10:56:16;;;;;;;17.67;8.18;;;;;;;40.56;20.00;98442.19;5095916;28;20031;-50
2023/06/03 10:58:44;;;;;;;5.43;3.72;;;;;;;40.76;19.73;98439.66;5114638;28;20033;-50
2023/06/03 11:01:10;;;;;;;14.77;5.50;;;;;;;41.06;19.29;98433.41;5114237;28;20016;-50
2023/06/03 11:04:02;;;;;;;5.85;3.47;;;;;;;41.16;19.56;98434.47;5096011;28;20107;-50
2023/06/03 11:06:28;;;;;;;8.25;4.38;;;;;;;41.38;19.27;98437.75;5114061;28;20038;-50
2023/06/03 11:09:15;;;;;;;5.30;3.58;;;;;;;41.53;19.25;98430.06;5114084;28;20024;-50
2023/06/03 11:11:41;;;;;;;11.43;4.53;;;;;;;41.94;18.69;98428.28;5114224;28;20035;-50
2023/06/03 11:14:40;;;;;;;5.47;3.60;;;;;;;41.84;18.78;98430.81;5112670;28;20397;-50
2023/06/03 11:17:06;;;;;;;9.05;3.97;;;;;;;41.84;18.58;98435.56;5113575;28;20393;-50
2023/06/03 11:19:44;;;;;;;8.70;4.00;;;;;;;41.93;18.62;98433.03;5113793;28;20023;-50
2023/06/03 11:22:11;;;;;;;11.00;4.88;;;;;;;41.98;18.77;98431.75;5112353;28;20027;-50
2023/06/03 11:24:43;;;;;;;13.68;4.50;;;;;;;41.72;19.04;98434.94;5113692;28;20030;-50
2023/06/03 11:27:20;;;;;;;11.77;4.72;;;;;;;40.99;19.43;98427.19;5113633;28;20020;-50
2023/06/03 11:29:46;;;;;;;6.93;3.80;;;;;;;40.80;19.80;98426.63;5113685;28;20030;-50
2023/06/03 11:32:13;;;;;;;5.80;3.90;;;;;;;40.96;19.69;98426.06;5113797;28;20028;-50
2023/06/03 11:34:39;;;;;;;9.43;4.10;;;;;;;40.53;19.96;98434.75;5113233;28;20396;-50